createdAt,value
2018-08-02T00:01:30.165Z,20.70
2018-08-02T00:03:58.912Z,20.70
2018-08-02T00:06:27.637Z,20.70
2018-08-02T00:08:56.386Z,20.70
2018-08-02T00:11:25.123Z,20.70
2018-08-02T00:13:53.862Z,20.80
2018-08-02T00:16:22.574Z,20.80
2018-08-02T00:18:51.368Z,20.80
2018-08-02T00:21:20.097Z,20.90
2018-08-02T00:23:48.819Z,20.90
2018-08-02T00:26:17.521Z,20.90
2018-08-02T00:28:46.247Z,20.90
2018-08-02T00:31:15.011Z,20.80
2018-08-02T00:33:43.951Z,20.80
2018-08-02T00:36:12.675Z,20.70
2018-08-02T00:38:42.464Z,20.70
2018-08-02T00:41:11.256Z,20.60
2018-08-02T00:43:39.975Z,20.50
2018-08-02T00:46:08.759Z,20.40
2018-08-02T00:48:37.544Z,20.30
2018-08-02T00:51:06.247Z,20.20
2018-08-02T00:53:34.976Z,20.10
2018-08-02T00:56:03.669Z,20.10
2018-08-02T00:58:32.430Z,20.00
2018-08-02T01:01:01.199Z,20.00
2018-08-02T01:03:29.943Z,20.00
2018-08-02T01:05:58.849Z,20.00
2018-08-02T01:08:28.724Z,19.90
2018-08-02T01:10:57.441Z,19.90
2018-08-02T01:13:26.177Z,19.90
2018-08-02T01:15:54.971Z,19.80
2018-08-02T01:18:23.681Z,19.80
2018-08-02T01:20:52.440Z,19.80
2018-08-02T01:23:21.165Z,19.80
2018-08-02T01:25:50.050Z,19.80
2018-08-02T01:28:18.832Z,19.90
2018-08-02T01:30:47.940Z,19.90
2018-08-02T01:33:16.655Z,19.90
2018-08-02T01:35:45.415Z,19.80
2018-08-02T01:40:42.644Z,19.80
2018-08-02T01:43:11.420Z,19.80
2018-08-02T01:48:08.561Z,19.90
2018-08-02T01:50:37.270Z,19.90
2018-08-02T01:53:09.803Z,19.90
2018-08-02T01:55:38.736Z,19.90
2018-08-02T01:58:07.537Z,19.90
2018-08-02T02:00:39.290Z,20.00
2018-08-02T02:03:08.882Z,20.00
2018-08-02T02:05:37.723Z,20.10
2018-08-02T02:08:07.632Z,20.10
2018-08-02T02:10:36.362Z,20.10
2018-08-02T02:13:09.083Z,20.10
2018-08-02T02:15:37.873Z,20.00
2018-08-02T02:18:06.613Z,20.00
2018-08-02T02:20:35.508Z,20.00
2018-08-02T02:25:32.746Z,20.10
2018-08-02T02:28:01.461Z,20.00
2018-08-02T02:30:30.197Z,20.10
2018-08-02T02:32:58.930Z,20.10
2018-08-02T02:35:27.631Z,20.10
2018-08-02T02:37:56.802Z,20.10
2018-08-02T02:40:25.509Z,20.10
2018-08-02T02:42:54.276Z,20.10
2018-08-02T02:45:23.017Z,20.20
2018-08-02T02:47:51.776Z,20.20
2018-08-02T02:50:20.473Z,20.20
2018-08-02T02:52:49.199Z,20.20
2018-08-02T02:55:17.918Z,20.20
2018-08-02T02:57:46.631Z,20.30
2018-08-02T03:00:15.329Z,20.30
2018-08-02T03:02:44.059Z,20.20
2018-08-02T03:05:12.785Z,20.20
2018-08-02T03:07:41.523Z,20.30
2018-08-02T03:10:10.762Z,20.30
2018-08-02T03:12:39.491Z,20.30
2018-08-02T03:15:08.220Z,20.30
2018-08-02T03:17:36.949Z,20.30
2018-08-02T03:20:06.079Z,20.40
2018-08-02T03:22:35.014Z,20.40
2018-08-02T03:25:03.731Z,20.30
2018-08-02T03:27:32.552Z,20.30
2018-08-02T03:30:01.280Z,20.30
2018-08-02T03:32:32.824Z,20.30
2018-08-02T03:35:01.542Z,20.30
2018-08-02T03:37:33.502Z,20.30
2018-08-02T03:40:03.277Z,20.30
2018-08-02T03:45:00.428Z,20.20
2018-08-02T03:47:29.161Z,20.10
2018-08-02T03:49:57.877Z,20.20
2018-08-02T03:52:26.644Z,20.10
2018-08-02T03:54:55.397Z,20.20
2018-08-02T03:57:24.147Z,20.20
2018-08-02T03:59:52.883Z,20.20
2018-08-02T04:02:21.921Z,20.30
2018-08-02T04:04:56.226Z,20.40
2018-08-02T04:07:24.946Z,20.40
2018-08-02T04:09:53.700Z,20.40
2018-08-02T04:12:22.455Z,20.40
2018-08-02T04:14:51.226Z,20.40
2018-08-02T04:17:19.956Z,20.40
2018-08-02T04:19:49.472Z,20.40
2018-08-02T04:22:18.762Z,20.40
2018-08-02T04:24:47.468Z,20.50
2018-08-02T04:27:16.203Z,20.40
2018-08-02T04:29:44.926Z,20.40
2018-08-02T04:32:13.832Z,20.40
2018-08-02T04:34:42.602Z,20.40
2018-08-02T04:37:11.346Z,20.50
2018-08-02T04:39:40.060Z,20.50
2018-08-02T04:42:08.894Z,20.50
2018-08-02T04:44:37.613Z,20.50
2018-08-02T04:47:06.356Z,20.40
2018-08-02T04:49:35.346Z,20.40
2018-08-02T04:52:04.080Z,20.40
2018-08-02T04:54:32.796Z,20.40
2018-08-02T04:57:01.514Z,20.40
2018-08-02T04:59:30.275Z,20.40
2018-08-02T05:01:59.085Z,20.40
2018-08-02T05:04:27.810Z,20.40
2018-08-02T05:06:56.637Z,20.60
2018-08-02T05:09:25.325Z,20.70
2018-08-02T05:11:54.071Z,20.80
2018-08-02T05:14:23.018Z,20.90
2018-08-02T05:16:51.768Z,21.10
2018-08-02T05:19:20.704Z,21.20
2018-08-02T05:21:49.480Z,21.30
2018-08-02T05:24:18.669Z,21.30
2018-08-02T05:26:47.421Z,21.40
2018-08-02T05:29:16.171Z,21.50
2018-08-02T05:31:44.969Z,21.60
2018-08-02T05:34:13.779Z,21.70
2018-08-02T05:36:42.947Z,21.90
2018-08-02T05:39:11.944Z,22.00
2018-08-02T05:41:40.964Z,22.10
2018-08-02T05:44:09.694Z,22.10
2018-08-02T05:46:38.447Z,22.20
2018-08-02T05:49:07.256Z,22.30
2018-08-02T05:51:36.083Z,22.30
2018-08-02T05:54:05.299Z,22.30
2018-08-02T05:56:34.056Z,22.40
2018-08-02T05:59:05.718Z,22.40
2018-08-02T06:01:34.838Z,22.50
2018-08-02T06:04:03.525Z,22.60
2018-08-02T06:06:32.824Z,22.60
2018-08-02T06:09:01.644Z,22.70
2018-08-02T06:11:30.369Z,22.80
2018-08-02T06:13:59.506Z,22.80
2018-08-02T06:16:29.551Z,22.90
2018-08-02T06:18:58.406Z,22.90
2018-08-02T06:21:27.437Z,23.00
2018-08-02T06:23:56.205Z,23.00
2018-08-02T06:26:25.029Z,23.10
2018-08-02T06:28:53.861Z,23.10
2018-08-02T06:31:22.948Z,23.10
2018-08-02T06:33:52.172Z,23.10
2018-08-02T06:36:22.762Z,23.20
2018-08-02T06:38:51.500Z,23.30
2018-08-02T06:41:20.274Z,23.40
2018-08-02T06:43:48.829Z,23.50
2018-08-02T06:46:37.992Z,23.50
2018-08-02T06:49:07.081Z,23.60
2018-08-02T06:51:36.012Z,23.70
2018-08-02T06:54:04.903Z,23.70
2018-08-02T06:56:33.689Z,23.80
2018-08-02T06:59:04.623Z,23.90
2018-08-02T07:01:33.389Z,24.00
2018-08-02T07:04:02.597Z,24.10
2018-08-02T07:06:31.371Z,24.10
2018-08-02T07:09:01.306Z,24.20
2018-08-02T07:11:30.654Z,24.30
2018-08-02T07:13:59.428Z,24.30
2018-08-02T07:16:28.253Z,24.40
2018-08-02T07:18:59.245Z,24.40
2018-08-02T07:21:28.389Z,24.50
2018-08-02T07:23:57.366Z,24.50
2018-08-02T07:26:26.290Z,24.60
2018-08-02T07:28:55.203Z,24.60
2018-08-02T07:31:24.088Z,24.60
2018-08-02T07:33:52.974Z,24.70
2018-08-02T07:36:21.773Z,24.70
2018-08-02T07:38:57.058Z,24.70
2018-08-02T07:41:25.878Z,24.70
2018-08-02T07:43:54.733Z,24.90
2018-08-02T07:46:23.482Z,25.00
2018-08-02T07:48:52.306Z,25.10
2018-08-02T07:51:21.150Z,25.20
2018-08-02T07:53:49.970Z,25.40
2018-08-02T07:56:18.800Z,25.50
2018-08-02T07:58:47.528Z,25.60
2018-08-02T08:01:16.348Z,25.60
2018-08-02T08:03:45.073Z,25.70
2018-08-02T08:06:14.111Z,25.70
2018-08-02T08:08:43.026Z,25.70
2018-08-02T08:11:12.058Z,25.70
2018-08-02T08:13:40.703Z,25.80
2018-08-02T08:16:10.297Z,25.80
2018-08-02T08:18:39.001Z,25.80
2018-08-02T08:21:07.850Z,25.90
2018-08-02T08:23:36.824Z,25.90
2018-08-02T08:26:05.577Z,25.80
2018-08-02T08:28:34.445Z,25.90
2018-08-02T08:31:03.225Z,25.90
2018-08-02T08:33:32.442Z,26.00
2018-08-02T08:36:01.300Z,26.20
2018-08-02T08:38:30.225Z,26.20
2018-08-02T08:40:59.152Z,26.20
2018-08-02T08:43:27.956Z,26.20
2018-08-02T08:45:57.141Z,26.30
2018-08-02T08:48:25.980Z,26.40
2018-08-02T08:50:54.813Z,26.40
2018-08-02T08:53:23.496Z,26.30
2018-08-02T08:55:52.260Z,26.40
2018-08-02T08:58:21.094Z,26.40
2018-08-02T09:00:49.833Z,26.40
2018-08-02T09:03:18.592Z,26.50
2018-08-02T09:05:47.642Z,26.70
2018-08-02T09:08:17.073Z,26.80
2018-08-02T09:10:45.797Z,26.90
2018-08-02T09:13:14.550Z,26.90
2018-08-02T09:18:11.986Z,27.10
2018-08-02T09:20:40.808Z,27.20
2018-08-02T09:23:09.598Z,27.20
2018-08-02T09:25:38.439Z,27.30
2018-08-02T09:28:07.242Z,27.40
2018-08-02T09:30:35.936Z,27.20
2018-08-02T09:33:04.758Z,27.20
2018-08-02T09:35:33.646Z,27.20
2018-08-02T09:40:31.221Z,27.30
2018-08-02T09:43:00.000Z,27.40
2018-08-02T09:45:28.834Z,27.60
2018-08-02T09:47:57.601Z,27.70
2018-08-02T09:50:26.360Z,27.70
2018-08-02T09:52:55.101Z,27.70
2018-08-02T09:55:23.899Z,27.70
2018-08-02T09:57:52.835Z,27.70
2018-08-02T10:00:27.178Z,27.80
2018-08-02T10:02:56.062Z,27.80
2018-08-02T10:05:25.028Z,27.80
2018-08-02T10:07:53.976Z,27.80
2018-08-02T10:10:22.739Z,27.70
2018-08-02T10:12:51.479Z,27.70
2018-08-02T10:15:20.384Z,27.70
2018-08-02T10:17:49.142Z,27.60
2018-08-02T10:20:18.006Z,27.60
2018-08-02T10:22:46.886Z,27.70
2018-08-02T10:25:15.901Z,27.60
2018-08-02T10:27:44.666Z,27.70
2018-08-02T10:30:13.506Z,27.80
2018-08-02T10:32:42.335Z,27.90
2018-08-02T10:35:11.044Z,28.00
2018-08-02T10:37:39.872Z,28.00
2018-08-02T10:40:08.582Z,28.10
2018-08-02T10:42:37.333Z,28.20
2018-08-02T10:45:06.207Z,28.30
2018-08-02T10:47:35.079Z,28.40
2018-08-02T10:50:03.949Z,28.40
2018-08-02T10:52:32.737Z,28.50
2018-08-02T10:55:01.650Z,28.50
2018-08-02T10:57:30.646Z,28.50
2018-08-02T10:59:59.425Z,28.60
2018-08-02T11:02:28.255Z,28.60
2018-08-02T11:04:57.183Z,28.50
2018-08-02T11:07:25.959Z,28.40
2018-08-02T11:09:54.994Z,28.50
2018-08-02T11:12:23.713Z,28.50
2018-08-02T11:14:52.529Z,28.70
2018-08-02T11:17:21.341Z,28.60
2018-08-02T11:19:50.114Z,28.50
2018-08-02T11:22:19.008Z,28.40
2018-08-02T11:24:47.991Z,28.40
2018-08-02T11:27:16.910Z,28.30
2018-08-02T11:29:45.658Z,28.50
2018-08-02T11:32:20.737Z,28.60
2018-08-02T11:34:49.606Z,28.50
2018-08-02T11:37:18.385Z,28.50
2018-08-02T11:39:47.149Z,28.50
2018-08-02T11:42:15.869Z,28.50
2018-08-02T11:44:45.177Z,28.60
2018-08-02T11:47:13.986Z,28.70
2018-08-02T11:49:42.849Z,28.80
2018-08-02T11:52:11.634Z,28.80
2018-08-02T11:54:40.386Z,28.80
2018-08-02T11:57:10.185Z,28.80
2018-08-02T11:59:38.891Z,28.90
2018-08-02T12:02:07.800Z,29.10
2018-08-02T12:04:36.502Z,29.20
2018-08-02T12:07:05.406Z,29.30
2018-08-02T12:09:34.323Z,29.50
2018-08-02T12:12:03.045Z,29.70
2018-08-02T12:14:31.800Z,29.80
2018-08-02T12:17:01.242Z,30.00
2018-08-02T12:19:30.353Z,30.00
2018-08-02T12:21:59.434Z,30.10
2018-08-02T12:24:28.330Z,30.20
2018-08-02T12:26:57.076Z,30.30
2018-08-02T12:29:25.935Z,30.30
2018-08-02T12:31:54.794Z,30.30
2018-08-02T12:34:23.611Z,30.50
2018-08-02T12:36:52.705Z,30.50
2018-08-02T12:39:21.555Z,30.60
2018-08-02T12:41:50.420Z,30.70
2018-08-02T12:44:19.224Z,30.70
2018-08-02T12:46:48.597Z,30.60
2018-08-02T12:49:17.337Z,30.70
2018-08-02T12:54:14.913Z,31.00
2018-08-02T12:56:43.553Z,31.00
2018-08-02T12:59:12.285Z,31.00
2018-08-02T13:01:41.025Z,30.90
2018-08-02T13:04:09.815Z,30.60
2018-08-02T13:06:38.609Z,30.60
2018-08-02T13:09:08.729Z,30.50
2018-08-02T13:11:38.068Z,30.50
2018-08-02T13:14:07.007Z,30.50
2018-08-02T13:16:35.903Z,30.60
2018-08-02T13:19:04.947Z,30.70
2018-08-02T13:21:33.703Z,30.80
2018-08-02T13:26:31.304Z,31.00
2018-08-02T13:29:00.185Z,31.10
2018-08-02T13:31:28.970Z,31.40
2018-08-02T13:33:57.857Z,31.60
2018-08-02T13:39:26.308Z,31.90
2018-08-02T13:41:55.361Z,32.10
2018-08-02T13:44:24.139Z,32.20
2018-08-02T13:46:53.023Z,32.20
2018-08-02T13:49:21.979Z,32.20
2018-08-02T13:51:50.958Z,32.20
2018-08-02T13:56:49.331Z,31.70
2018-08-02T13:59:18.216Z,31.40
2018-08-02T14:01:46.966Z,31.30
2018-08-02T14:04:15.744Z,31.20
2018-08-02T14:06:44.678Z,31.30
2018-08-02T14:09:13.563Z,31.30
2018-08-02T14:11:42.911Z,31.20
2018-08-02T14:14:11.872Z,31.30
2018-08-02T14:16:40.773Z,31.40
2018-08-02T14:19:09.801Z,31.40
2018-08-02T14:21:38.552Z,31.60
2018-08-02T14:24:07.310Z,31.90
2018-08-02T14:26:36.534Z,32.00
2018-08-02T14:29:06.521Z,31.80
2018-08-02T14:31:35.454Z,31.60
2018-08-02T14:34:04.728Z,31.40
2018-08-02T14:36:33.594Z,31.40
2018-08-02T14:39:02.635Z,31.40
2018-08-02T14:41:31.610Z,31.20
2018-08-02T14:44:00.475Z,31.10
2018-08-02T14:46:29.332Z,31.00
2018-08-02T14:48:58.325Z,31.20
2018-08-02T14:51:27.173Z,31.10
2018-08-02T14:53:56.009Z,31.10
2018-08-02T14:56:24.739Z,31.20
2018-08-02T14:58:53.596Z,31.20
2018-08-02T15:01:22.485Z,31.30
2018-08-02T15:03:51.364Z,31.20
2018-08-02T15:06:20.168Z,31.30
2018-08-02T15:08:48.908Z,31.40
2018-08-02T15:11:17.747Z,31.50
2018-08-02T15:13:46.697Z,31.60
2018-08-02T15:16:15.562Z,31.60
2018-08-02T15:18:44.319Z,31.50
2018-08-02T15:21:13.112Z,31.50
2018-08-02T15:23:41.933Z,31.60
2018-08-02T15:26:10.712Z,31.70
2018-08-02T15:28:39.505Z,31.50
2018-08-02T15:31:08.658Z,31.50
2018-08-02T15:33:37.422Z,31.70
2018-08-02T15:36:06.268Z,31.90
2018-08-02T15:38:35.145Z,31.90
2018-08-02T15:41:04.078Z,32.00
2018-08-02T15:43:32.946Z,31.90
2018-08-02T15:46:01.752Z,31.80
2018-08-02T15:48:30.623Z,31.80
2018-08-02T15:50:59.453Z,31.90
2018-08-02T15:56:12.686Z,32.10
2018-08-02T15:58:41.487Z,32.20
2018-08-02T16:01:10.328Z,32.10
2018-08-02T16:03:39.199Z,31.90
2018-08-02T16:06:08.285Z,31.80
2018-08-02T16:08:37.145Z,31.90
2018-08-02T16:11:06.032Z,31.80
2018-08-02T16:13:34.987Z,31.60
2018-08-02T16:16:03.888Z,31.50
2018-08-02T16:18:32.716Z,31.60
2018-08-02T16:21:01.711Z,31.80
2018-08-02T16:23:30.624Z,31.70
2018-08-02T16:25:59.478Z,31.40
2018-08-02T16:28:28.251Z,31.40
2018-08-02T16:30:57.013Z,31.50
2018-08-02T16:33:25.925Z,31.70
2018-08-02T16:36:00.353Z,31.60
2018-08-02T16:38:29.359Z,31.60
2018-08-02T16:40:58.135Z,31.50
2018-08-02T16:43:28.985Z,31.50
2018-08-02T16:45:57.699Z,31.50
2018-08-02T16:48:26.561Z,31.30
2018-08-02T16:50:55.351Z,31.30
2018-08-02T16:53:24.168Z,31.20
2018-08-02T16:55:53.065Z,31.20
2018-08-02T16:58:21.969Z,31.20
2018-08-02T17:00:50.950Z,31.20
2018-08-02T17:03:22.089Z,31.20
2018-08-02T17:05:51.080Z,31.40
2018-08-02T17:08:20.307Z,31.60
2018-08-02T17:10:49.241Z,31.60
2018-08-02T17:13:18.090Z,31.40
2018-08-02T17:15:46.918Z,31.40
2018-08-02T17:18:15.739Z,31.60
2018-08-02T17:20:44.587Z,31.50
2018-08-02T17:23:13.408Z,31.40
2018-08-02T17:25:42.293Z,31.40
2018-08-02T17:30:40.380Z,31.40
2018-08-02T17:33:09.231Z,31.30
2018-08-02T17:35:38.096Z,31.40
2018-08-02T17:38:06.931Z,31.20
2018-08-02T17:40:35.792Z,31.10
2018-08-02T17:43:04.644Z,30.90
2018-08-02T17:45:33.370Z,30.60
2018-08-02T17:48:02.119Z,30.30
2018-08-02T17:50:31.046Z,30.10
2018-08-02T17:53:13.898Z,30.00
2018-08-02T17:55:43.181Z,29.90
2018-08-02T17:58:11.953Z,29.70
2018-08-02T18:00:40.721Z,29.60
2018-08-02T18:03:09.487Z,29.50
2018-08-02T18:05:38.213Z,29.30
2018-08-02T18:10:35.610Z,29.20
2018-08-02T18:13:05.890Z,29.10
2018-08-02T18:15:34.613Z,28.90
2018-08-02T18:18:08.125Z,28.90
2018-08-02T18:20:36.985Z,28.80
2018-08-02T18:23:05.937Z,28.80
2018-08-02T18:25:36.032Z,28.70
2018-08-02T18:28:10.853Z,28.70
2018-08-02T18:30:46.676Z,28.70
2018-08-02T18:33:15.538Z,28.60
2018-08-02T18:35:47.965Z,28.50
2018-08-02T18:38:19.591Z,28.30
2018-08-02T18:40:50.437Z,28.20
2018-08-02T18:43:33.158Z,28.20
2018-08-02T18:46:05.397Z,28.10
2018-08-02T18:48:34.159Z,28.00
2018-08-02T18:51:03.050Z,27.80
2018-08-02T18:53:32.073Z,27.80
2018-08-02T18:56:01.323Z,27.70
2018-08-02T18:58:30.376Z,27.60
2018-08-02T19:00:59.174Z,27.50
2018-08-02T19:03:28.978Z,27.30
2018-08-02T19:05:58.677Z,27.20
2018-08-02T19:08:27.468Z,27.10
2018-08-02T19:10:56.250Z,27.00
2018-08-02T19:13:25.048Z,26.90
2018-08-02T19:15:53.762Z,26.80
2018-08-02T19:18:22.659Z,26.70
2018-08-02T19:20:51.372Z,26.60
2018-08-02T19:23:20.182Z,26.50
2018-08-02T19:25:48.950Z,26.40
2018-08-02T19:28:17.782Z,26.30
2018-08-02T19:30:47.352Z,26.30
2018-08-02T19:33:16.114Z,26.20
2018-08-02T19:35:44.861Z,26.10
2018-08-02T19:38:13.571Z,26.00
2018-08-02T19:40:42.353Z,26.00
2018-08-02T19:43:25.456Z,25.90
2018-08-02T19:45:55.194Z,25.80
2018-08-02T19:48:24.000Z,25.70
2018-08-02T19:50:53.607Z,25.70
2018-08-02T19:53:23.718Z,25.60
2018-08-02T19:55:52.852Z,25.50
2018-08-02T19:58:21.634Z,25.50
2018-08-02T20:00:51.685Z,25.40
2018-08-02T20:06:02.174Z,25.20
2018-08-02T20:08:31.851Z,25.20
2018-08-02T20:11:00.595Z,25.10
2018-08-02T20:13:29.502Z,25.10
2018-08-02T20:16:03.579Z,25.10
2018-08-02T20:18:33.527Z,25.00
2018-08-02T20:23:30.690Z,24.90
2018-08-02T20:25:59.408Z,24.90
2018-08-02T20:30:56.714Z,24.80
2018-08-02T20:33:25.550Z,24.70
2018-08-02T20:36:00.166Z,24.70
2018-08-02T20:38:28.865Z,24.60
2018-08-02T20:40:57.554Z,24.50
2018-08-02T20:43:26.307Z,24.50
2018-08-02T20:45:55.192Z,24.40
2018-08-02T20:48:25.011Z,24.40
2018-08-02T20:50:53.722Z,24.30
2018-08-02T20:53:22.470Z,24.30
2018-08-02T20:55:51.200Z,24.30
2018-08-02T20:58:19.985Z,24.30
2018-08-02T21:00:48.725Z,24.20
2018-08-02T21:03:19.491Z,24.20
2018-08-02T21:05:48.191Z,24.10
2018-08-02T21:08:17.631Z,24.10
2018-08-02T21:10:46.401Z,24.10
2018-08-02T21:13:15.249Z,24.00
2018-08-02T21:15:44.036Z,24.00
2018-08-02T21:18:12.811Z,24.00
2018-08-02T21:20:42.470Z,24.00
2018-08-02T21:23:11.257Z,23.90
2018-08-02T21:25:39.969Z,23.90
2018-08-02T21:28:08.752Z,23.80
2018-08-02T21:30:37.526Z,23.90
2018-08-02T21:33:07.166Z,23.90
2018-08-02T21:35:35.880Z,23.80
2018-08-02T21:38:04.732Z,23.70
2018-08-02T21:40:33.445Z,23.70
2018-08-02T21:43:02.169Z,23.70
2018-08-02T21:45:30.945Z,23.60
2018-08-02T21:47:59.775Z,23.60
2018-08-02T21:50:29.534Z,23.50
2018-08-02T21:52:58.693Z,23.50
2018-08-02T21:55:27.395Z,23.50
2018-08-02T22:00:32.272Z,23.50
2018-08-02T22:03:05.879Z,23.40
2018-08-02T22:05:39.748Z,23.30
2018-08-02T22:08:12.028Z,23.30
2018-08-02T22:10:41.669Z,23.20
2018-08-02T22:13:18.061Z,23.20
2018-08-02T22:15:51.917Z,23.20
2018-08-02T22:20:49.626Z,23.10
2018-08-02T22:23:18.371Z,23.00
2018-08-02T22:25:48.081Z,22.90
2018-08-02T22:28:16.840Z,22.80
2018-08-02T22:30:52.602Z,22.80
2018-08-02T22:33:21.313Z,22.70
2018-08-02T22:35:50.646Z,22.70
2018-08-02T22:38:24.862Z,22.70
2018-08-02T22:40:53.602Z,22.70
2018-08-02T22:43:22.349Z,22.70
2018-08-02T22:45:51.072Z,22.70
2018-08-02T22:48:19.895Z,22.70
2018-08-02T22:50:48.589Z,22.60
2018-08-02T22:53:17.318Z,22.60
2018-08-02T22:55:46.044Z,22.60
2018-08-02T22:58:14.761Z,22.60
2018-08-02T23:00:43.489Z,22.60
2018-08-02T23:03:12.220Z,22.50
2018-08-02T23:05:40.948Z,22.50
2018-08-02T23:08:09.676Z,22.50
2018-08-02T23:10:38.620Z,22.50
2018-08-02T23:13:07.325Z,22.40
2018-08-02T23:15:36.140Z,22.40
2018-08-02T23:18:04.899Z,22.30
2018-08-02T23:20:33.701Z,22.30
2018-08-02T23:23:02.405Z,22.30
2018-08-02T23:25:31.128Z,22.20
2018-08-02T23:27:59.889Z,22.20
2018-08-02T23:30:28.632Z,22.20
2018-08-02T23:32:57.353Z,22.20
2018-08-02T23:35:26.104Z,22.20
2018-08-02T23:37:54.823Z,22.20
2018-08-02T23:40:23.606Z,22.20
2018-08-02T23:42:52.338Z,22.20
2018-08-02T23:45:21.069Z,22.20
2018-08-02T23:47:50.717Z,22.20
2018-08-02T23:50:19.469Z,22.10
2018-08-02T23:52:48.735Z,22.10
2018-08-02T23:55:17.451Z,22.10
2018-08-02T23:57:46.231Z,22.10
